207-й км

Карта отелей и гостиниц, располагающихся рядом с аэропортом 207-й км :

207-й км Ханты-Мансийский автономный округ - Югра 63° 5' 0.3012" N, 60° 25' 53.1012" E
207-й км Ханты-Мансийский автономный округ - Югра 63° 5' 0.3012" N, 60° 25' 53.1012" E
Код аэродрома ИКАО
HA7P
Код аэродрома RU
ХА7П
Координаты
N63.08342° E060.43142°
Превышение над уровнем моря
185
Основная полоса
Курс магнитный
Длина основной ВПП
Ширина основной ВПП
Покрытие основной ВПП
Твёрдое
Освещение ВПП
Нет
Тип: 
Вертодром
Класс аэродрома: 
Принадлежность: 
ГА
Статус: 
Действующий
Сайт: 
E-mail аэродрома: 
Страна: 
Россия
Регион: 
Ханты-Мансийский автономный округ - Югра
Город: 
Дополнительная информация: 

Найти трансфер

С помощью этой формы Вы можете найти трансфер из аэропорта 207-й км в город, аэропорт или вокзал:

Карта места

Javascript is required to view this map.

Погода в аэропортах:

Авиационная погода в Одессе

Регион: 
Погода METAR: 
UKOO 060700Z 16006MPS 9999 -RA BKN007 OVC016 11/11 Q1010 NOSIG
Время наблюдения
2021-12-06T07:00:00Z
Температура C
11.0
Точка росы
11.0
Направление ветра
160
Скорость ветра (узлы)
12
Метео видимость
6.21
Явления погоды
-RA
Условия полета
IFR
Аэропорт подробнее: 

Авиационная погода в Борисполе

Регион: 
Погода METAR: 
UKBB 060700Z 12004MPS 2500 BR OVC003 M00/M01 Q1012 TEMPO 2100 -FZRA -SHSN BKN002 SCT012CB
Время наблюдения
2021-12-06T07:00:00Z
Температура C
0.0
Точка росы
-1.0
Направление ветра
120
Скорость ветра (узлы)
8
Метео видимость
1.55
Явления погоды
BR
Условия полета
LIFR
Аэропорт подробнее: 

Авиационная погода в Виннице

Регион: 
Погода METAR: 
UKWW 060700Z 10003MPS 0250 FG VV002 00/00 Q1009 NOSIG
Время наблюдения
2021-12-06T07:00:00Z
Температура C
0.0
Точка росы
0.0
Направление ветра
100
Скорость ветра (узлы)
6
Метео видимость
0.16
Явления погоды
FG
Условия полета
LIFR
Аэропорт подробнее: 

Авиационная погода в Волгограде

Регион: 
Погода METAR: 
URWW 060700Z 06004MPS 1500 R06/1600U -FZDZ BR OVC002 M00/M01 Q1019 R06/290057 TEMPO 0400 FZDZ FZFG RMK QBB060 OBST OBSC
Время наблюдения
2021-12-06T07:00:00Z
Температура C
0.0
Точка росы
-1.0
Направление ветра
60
Скорость ветра (узлы)
8
Метео видимость
0.93
Явления погоды
-FZDZ BR
Условия полета
LIFR
Аэропорт подробнее: